createdAt,value
2017-09-21T00:02:05.423Z,20.60
2017-09-21T00:04:33.007Z,20.33
2017-09-21T00:07:00.615Z,15.30
2017-09-21T00:09:28.192Z,20.07
2017-09-21T00:11:55.811Z,17.40
2017-09-21T00:14:23.407Z,16.90
2017-09-21T00:16:50.984Z,19.10
2017-09-21T00:19:18.591Z,14.07
2017-09-21T00:21:46.172Z,16.50
2017-09-21T00:24:13.799Z,16.17
2017-09-21T00:26:41.376Z,13.00
2017-09-21T00:29:08.948Z,14.43
2017-09-21T00:31:36.574Z,16.47
2017-09-21T00:34:04.153Z,15.27
2017-09-21T00:36:31.757Z,18.00
2017-09-21T00:38:59.379Z,15.40
2017-09-21T00:41:26.957Z,26.77
2017-09-21T00:43:54.891Z,16.77
2017-09-21T00:46:22.499Z,17.70
2017-09-21T00:48:50.093Z,17.50
2017-09-21T00:51:17.716Z,19.13
2017-09-21T00:53:45.302Z,14.73
2017-09-21T00:56:12.884Z,16.67
2017-09-21T00:58:40.518Z,17.70
2017-09-21T01:01:08.102Z,18.37
2017-09-21T01:03:35.992Z,16.50
2017-09-21T01:06:03.600Z,20.77
2017-09-21T01:08:31.185Z,18.20
2017-09-21T01:10:58.817Z,24.37
2017-09-21T01:13:26.387Z,19.83
2017-09-21T01:15:53.974Z,19.27
2017-09-21T01:18:21.593Z,17.50
2017-09-21T01:20:49.197Z,16.73
2017-09-21T01:23:16.815Z,24.20
2017-09-21T01:25:44.408Z,21.73
2017-09-21T01:28:11.996Z,17.73
2017-09-21T01:30:39.604Z,17.33
2017-09-21T01:33:07.182Z,21.77
2017-09-21T01:35:35.104Z,20.33
2017-09-21T01:38:02.695Z,21.97
2017-09-21T01:40:30.284Z,15.40
2017-09-21T01:42:57.898Z,25.33
2017-09-21T01:45:25.502Z,22.00
2017-09-21T01:47:53.131Z,22.80
2017-09-21T01:50:20.977Z,23.90
2017-09-21T01:52:48.563Z,23.97
2017-09-21T01:55:16.513Z,20.60
2017-09-21T01:57:44.101Z,24.53
2017-09-21T02:00:11.730Z,23.33
2017-09-21T02:02:39.384Z,20.83
2017-09-21T02:05:06.967Z,19.80
2017-09-21T02:07:34.930Z,27.53
2017-09-21T02:10:02.558Z,23.70
2017-09-21T02:12:30.178Z,21.83
2017-09-21T02:14:57.771Z,24.37
2017-09-21T02:17:25.360Z,24.90
2017-09-21T02:19:52.956Z,24.30
2017-09-21T02:22:20.568Z,27.00
2017-09-21T02:24:48.463Z,24.17
2017-09-21T02:27:16.060Z,21.20
2017-09-21T02:29:43.902Z,29.73
2017-09-21T02:32:11.517Z,26.00
2017-09-21T02:34:39.109Z,26.20
2017-09-21T02:37:06.743Z,24.23
2017-09-21T02:39:34.336Z,25.93
2017-09-21T02:42:01.921Z,22.13
2017-09-21T02:44:29.545Z,27.30
2017-09-21T02:46:57.439Z,26.03
2017-09-21T02:49:25.067Z,26.30
2017-09-21T02:51:52.662Z,33.83
2017-09-21T02:54:20.308Z,29.17
2017-09-21T02:56:47.924Z,37.43
2017-09-21T02:59:15.508Z,31.83
2017-09-21T03:01:43.132Z,30.60
2017-09-21T03:04:10.724Z,31.50
2017-09-21T03:06:38.316Z,41.93
2017-09-21T03:09:05.928Z,31.23
2017-09-21T03:11:33.514Z,35.53
2017-09-21T03:14:01.140Z,28.20
2017-09-21T03:16:28.727Z,29.80
2017-09-21T03:18:56.641Z,32.47
2017-09-21T03:21:24.269Z,35.60
2017-09-21T03:23:51.847Z,35.20
2017-09-21T03:26:19.476Z,28.57
2017-09-21T03:28:47.060Z,33.03
2017-09-21T03:31:14.663Z,42.03
2017-09-21T03:33:42.278Z,27.90
2017-09-21T03:36:09.852Z,30.03
2017-09-21T03:38:37.495Z,35.83
2017-09-21T03:41:05.076Z,34.63
2017-09-21T03:43:32.657Z,32.97
2017-09-21T03:46:00.255Z,45.43
2017-09-21T03:48:27.844Z,33.33
2017-09-21T03:50:55.473Z,39.93
2017-09-21T03:53:23.095Z,39.70
2017-09-21T03:55:50.686Z,38.60
2017-09-21T03:58:18.296Z,34.03
2017-09-21T04:00:46.194Z,41.67
2017-09-21T04:03:13.815Z,31.80
2017-09-21T04:05:41.422Z,42.93
2017-09-21T04:08:09.014Z,31.03
2017-09-21T04:10:36.617Z,32.27
2017-09-21T04:13:04.530Z,35.30
2017-09-21T04:15:32.484Z,33.60
2017-09-21T04:18:00.059Z,32.33
2017-09-21T04:20:27.635Z,38.10
2017-09-21T04:22:55.247Z,33.43
2017-09-21T04:25:22.827Z,36.93
2017-09-21T04:27:51.375Z,37.37
2017-09-21T04:30:18.955Z,43.53
2017-09-21T04:32:46.535Z,36.73
2017-09-21T04:35:14.149Z,36.03
2017-09-21T04:37:41.735Z,34.03
2017-09-21T04:40:09.348Z,39.70
2017-09-21T04:42:36.931Z,38.07
2017-09-21T04:45:04.531Z,35.57
2017-09-21T04:47:32.152Z,37.53
2017-09-21T04:49:59.730Z,34.50
2017-09-21T04:52:27.440Z,36.23
2017-09-21T04:54:55.307Z,40.40
2017-09-21T04:57:23.168Z,31.93
2017-09-21T04:59:50.775Z,31.23
2017-09-21T05:02:18.356Z,34.70
2017-09-21T05:04:45.977Z,38.83
2017-09-21T05:07:13.567Z,39.10
2017-09-21T05:09:41.148Z,32.43
2017-09-21T05:12:08.779Z,43.47
2017-09-21T05:14:36.768Z,35.30
2017-09-21T05:17:04.393Z,35.07
2017-09-21T05:19:31.981Z,41.20
2017-09-21T05:21:59.563Z,38.23
2017-09-21T05:24:27.953Z,34.70
2017-09-21T05:26:55.840Z,35.83
2017-09-21T05:29:23.449Z,38.13
2017-09-21T05:31:51.038Z,33.70
2017-09-21T05:34:18.611Z,38.97
2017-09-21T05:36:46.933Z,42.23
2017-09-21T05:39:14.524Z,41.43
2017-09-21T05:41:42.143Z,39.87
2017-09-21T05:44:09.721Z,37.90
2017-09-21T05:46:37.310Z,37.67
2017-09-21T05:49:04.919Z,39.70
2017-09-21T05:51:32.497Z,43.47
2017-09-21T05:54:00.108Z,42.30
2017-09-21T05:56:27.696Z,37.90
2017-09-21T05:58:55.289Z,37.40
2017-09-21T06:01:22.894Z,42.17
2017-09-21T06:03:50.475Z,37.30
2017-09-21T06:06:18.091Z,53.67
2017-09-21T06:08:45.703Z,38.80
2017-09-21T06:11:13.275Z,42.43
2017-09-21T06:13:40.875Z,38.90
2017-09-21T06:16:08.475Z,35.73
2017-09-21T06:18:36.091Z,37.07
2017-09-21T06:21:03.699Z,35.53
2017-09-21T06:23:31.276Z,45.00
2017-09-21T06:25:58.971Z,37.47
2017-09-21T06:28:26.807Z,42.70
2017-09-21T06:30:54.425Z,35.80
2017-09-21T06:33:22.353Z,40.83
2017-09-21T06:35:49.946Z,35.63
2017-09-21T06:38:17.551Z,38.13
2017-09-21T06:40:45.132Z,38.40
2017-09-21T06:43:12.996Z,33.33
2017-09-21T06:45:40.589Z,35.73
2017-09-21T06:48:08.192Z,40.57
2017-09-21T06:50:36.081Z,34.60
2017-09-21T06:53:03.664Z,40.23
2017-09-21T06:55:31.282Z,38.10
2017-09-21T06:57:58.874Z,33.07
2017-09-21T07:00:26.451Z,34.97
2017-09-21T07:02:54.406Z,37.90
2017-09-21T07:05:21.979Z,33.50
2017-09-21T07:07:49.601Z,40.57
2017-09-21T07:10:17.492Z,34.63
2017-09-21T07:12:45.083Z,36.60
2017-09-21T07:15:12.690Z,36.00
2017-09-21T07:17:40.277Z,34.37
2017-09-21T07:20:07.928Z,38.60
2017-09-21T07:22:35.516Z,39.73
2017-09-21T07:25:03.095Z,39.83
2017-09-21T07:27:36.330Z,33.20
2017-09-21T07:30:03.939Z,51.33
2017-09-21T07:32:31.567Z,34.90
2017-09-21T07:34:59.147Z,43.90
2017-09-21T07:37:26.727Z,35.37
2017-09-21T07:39:54.501Z,39.00
2017-09-21T07:42:22.419Z,39.53
2017-09-21T07:44:50.412Z,38.40
2017-09-21T07:47:18.063Z,35.57
2017-09-21T07:49:45.662Z,35.53
2017-09-21T07:52:13.272Z,43.47
2017-09-21T07:54:41.106Z,38.43
2017-09-21T07:57:09.025Z,34.40
2017-09-21T07:59:36.652Z,37.53
2017-09-21T08:02:04.249Z,37.23
2017-09-21T08:04:31.840Z,43.07
2017-09-21T08:06:59.776Z,41.63
2017-09-21T08:09:27.366Z,36.73
2017-09-21T08:11:54.984Z,35.60
2017-09-21T08:14:22.577Z,37.10
2017-09-21T08:16:50.159Z,33.50
2017-09-21T08:19:17.769Z,38.13
2017-09-21T08:21:45.348Z,35.30
2017-09-21T08:24:12.975Z,36.33
2017-09-21T08:26:40.552Z,37.20
2017-09-21T08:29:08.140Z,38.27
2017-09-21T08:31:35.751Z,34.17
2017-09-21T08:34:03.326Z,37.93
2017-09-21T08:36:31.223Z,42.47
2017-09-21T08:38:58.804Z,42.20
2017-09-21T08:41:26.651Z,36.13
2017-09-21T08:43:54.253Z,33.93
2017-09-21T08:46:21.940Z,33.23
2017-09-21T08:48:49.603Z,29.40
2017-09-21T08:51:17.216Z,32.57
2017-09-21T08:53:44.796Z,50.77
2017-09-21T08:56:12.413Z,32.53
2017-09-21T08:58:40.014Z,27.87
2017-09-21T09:01:07.637Z,28.50
2017-09-21T09:03:35.216Z,32.50
2017-09-21T09:06:02.801Z,31.80
2017-09-21T09:08:30.411Z,30.63
2017-09-21T09:10:57.989Z,25.73
2017-09-21T09:13:25.757Z,35.17
2017-09-21T09:15:53.343Z,39.23
2017-09-21T09:18:20.927Z,28.27
2017-09-21T09:20:48.528Z,35.50
2017-09-21T09:23:16.111Z,26.27
2017-09-21T09:25:43.728Z,25.43
2017-09-21T09:28:11.307Z,26.47
2017-09-21T09:30:38.895Z,28.80
2017-09-21T09:33:06.506Z,17.67
2017-09-21T09:35:34.092Z,32.20
2017-09-21T09:38:02.354Z,22.50
2017-09-21T09:40:30.027Z,21.00
2017-09-21T09:42:57.609Z,26.40
2017-09-21T09:45:25.491Z,24.57
2017-09-21T09:47:53.080Z,16.40
2017-09-21T09:50:20.698Z,21.03
2017-09-21T09:52:48.576Z,22.07
2017-09-21T09:55:16.159Z,23.93
2017-09-21T09:57:43.862Z,24.47
2017-09-21T10:00:11.445Z,23.60
2017-09-21T10:02:39.088Z,24.43
2017-09-21T10:05:06.667Z,20.70
2017-09-21T10:07:34.249Z,17.20
2017-09-21T10:10:01.864Z,16.87
2017-09-21T10:12:29.446Z,20.20
2017-09-21T10:14:57.078Z,28.60
2017-09-21T10:17:24.656Z,16.37
2017-09-21T10:19:52.237Z,17.73
2017-09-21T10:22:20.063Z,17.00
2017-09-21T10:24:47.650Z,25.03
2017-09-21T10:27:15.282Z,15.40
2017-09-21T10:29:42.866Z,19.10
2017-09-21T10:32:10.687Z,18.70
2017-09-21T10:34:38.287Z,17.10
2017-09-21T10:37:05.867Z,17.77
2017-09-21T10:39:33.480Z,17.43
2017-09-21T10:42:01.043Z,16.20
2017-09-21T10:44:28.623Z,11.77
2017-09-21T10:46:56.253Z,13.43
2017-09-21T10:49:23.836Z,15.60
2017-09-21T10:51:51.460Z,15.40
2017-09-21T10:54:19.044Z,13.33
2017-09-21T10:56:46.797Z,17.33
2017-09-21T10:59:14.787Z,17.50
2017-09-21T11:01:42.376Z,16.43
2017-09-21T11:04:09.989Z,15.80
2017-09-21T11:06:37.572Z,12.50
2017-09-21T11:09:05.160Z,14.27
2017-09-21T11:11:32.774Z,14.40
2017-09-21T11:14:00.367Z,18.83
2017-09-21T11:16:27.999Z,16.10
2017-09-21T11:18:55.576Z,11.73
2017-09-21T11:21:23.160Z,16.97
2017-09-21T11:23:50.780Z,21.07
2017-09-21T11:26:18.360Z,17.03
2017-09-21T11:28:46.004Z,19.30
2017-09-21T11:31:13.615Z,13.17
2017-09-21T11:33:41.230Z,20.17
2017-09-21T11:36:08.849Z,22.20
2017-09-21T11:38:36.435Z,15.50
2017-09-21T11:41:04.318Z,27.30
2017-09-21T11:43:32.185Z,13.83
2017-09-21T11:45:59.781Z,14.67
2017-09-21T11:48:27.400Z,24.30
2017-09-21T11:50:54.998Z,15.10
2017-09-21T11:53:22.854Z,20.57
2017-09-21T11:55:50.431Z,27.63
2017-09-21T11:58:18.018Z,24.43
2017-09-21T12:00:45.620Z,22.23
2017-09-21T12:03:13.203Z,20.37
2017-09-21T12:05:40.823Z,23.03
2017-09-21T12:08:08.417Z,17.03
2017-09-21T12:10:35.999Z,19.17
2017-09-21T12:13:03.638Z,18.13
2017-09-21T12:15:31.221Z,21.83
2017-09-21T12:17:58.836Z,19.70
2017-09-21T12:20:26.433Z,19.10
2017-09-21T12:22:54.013Z,21.57
2017-09-21T12:25:21.858Z,22.63
2017-09-21T12:27:49.435Z,20.53
2017-09-21T12:30:17.079Z,20.13
2017-09-21T12:32:44.960Z,23.67
2017-09-21T12:35:12.545Z,23.50
2017-09-21T12:37:40.162Z,22.20
2017-09-21T12:40:07.734Z,19.80
2017-09-21T12:42:35.689Z,20.13
2017-09-21T12:45:03.269Z,16.07
2017-09-21T12:47:30.852Z,22.10
2017-09-21T12:49:58.471Z,23.67
2017-09-21T12:52:26.039Z,20.37
2017-09-21T12:54:53.652Z,27.10
2017-09-21T12:57:21.249Z,36.13
2017-09-21T12:59:48.829Z,25.53
2017-09-21T13:02:16.789Z,29.07
2017-09-21T13:04:44.366Z,19.50
2017-09-21T13:07:12.008Z,24.10
2017-09-21T13:09:39.603Z,24.20
2017-09-21T13:12:07.181Z,27.80
2017-09-21T13:14:35.104Z,23.93
2017-09-21T13:17:02.698Z,26.57
2017-09-21T13:19:30.392Z,37.13
2017-09-21T13:21:57.994Z,27.63
2017-09-21T13:24:25.580Z,24.00
2017-09-21T13:26:53.179Z,21.70
2017-09-21T13:29:21.080Z,25.80
2017-09-21T13:31:49.316Z,20.90
2017-09-21T13:34:17.020Z,22.90
2017-09-21T13:36:44.600Z,21.73
2017-09-21T13:39:12.204Z,23.10
2017-09-21T13:41:39.789Z,22.17
2017-09-21T13:44:07.402Z,28.53
2017-09-21T13:46:35.349Z,25.37
2017-09-21T13:49:02.929Z,26.47
2017-09-21T13:51:30.541Z,20.67
2017-09-21T13:53:58.163Z,20.03
2017-09-21T13:56:25.788Z,18.33
2017-09-21T13:58:53.406Z,21.53
2017-09-21T14:01:21.013Z,20.60
2017-09-21T14:03:48.621Z,20.10
2017-09-21T14:06:17.260Z,19.17
2017-09-21T14:08:45.019Z,24.33
2017-09-21T14:11:12.598Z,23.03
2017-09-21T14:13:40.185Z,24.83
2017-09-21T14:16:07.791Z,19.30
2017-09-21T14:18:35.495Z,16.47
2017-09-21T14:21:03.122Z,19.73
2017-09-21T14:23:30.714Z,18.97
2017-09-21T14:25:58.296Z,15.60
2017-09-21T14:28:25.900Z,20.43
2017-09-21T14:30:53.494Z,30.17
2017-09-21T14:33:21.126Z,20.40
2017-09-21T14:35:48.756Z,16.60
2017-09-21T14:38:16.345Z,16.70
2017-09-21T14:40:43.956Z,28.23
2017-09-21T14:43:11.795Z,22.13
2017-09-21T14:45:39.420Z,23.83
2017-09-21T14:48:07.016Z,22.20
2017-09-21T14:50:34.595Z,23.70
2017-09-21T14:53:02.196Z,23.97
2017-09-21T14:55:29.775Z,22.80
2017-09-21T14:57:57.365Z,21.50
2017-09-21T15:00:24.971Z,27.83
2017-09-21T15:02:52.551Z,21.87
2017-09-21T15:05:20.453Z,15.77
2017-09-21T15:07:48.072Z,17.50
2017-09-21T15:10:15.671Z,17.07
2017-09-21T15:12:43.247Z,18.37
2017-09-21T15:15:10.863Z,22.87
2017-09-21T15:17:38.466Z,20.00
2017-09-21T15:20:06.047Z,16.53
2017-09-21T15:22:33.691Z,16.53
2017-09-21T15:25:01.552Z,16.90
2017-09-21T15:27:29.176Z,18.33
2017-09-21T15:29:56.751Z,17.00
2017-09-21T15:32:24.658Z,17.37
2017-09-21T15:34:52.296Z,25.33
2017-09-21T15:37:19.899Z,17.50
2017-09-21T15:39:47.520Z,22.13
2017-09-21T15:42:15.101Z,18.13
2017-09-21T15:44:42.681Z,15.70
2017-09-21T15:47:10.299Z,18.30
2017-09-21T15:49:37.899Z,20.97
2017-09-21T15:52:05.538Z,15.33
2017-09-21T15:54:33.119Z,16.90
2017-09-21T15:57:00.707Z,18.37
2017-09-21T15:59:28.636Z,19.93
2017-09-21T16:01:56.239Z,18.30
2017-09-21T16:04:23.862Z,13.67
2017-09-21T16:06:51.842Z,22.13
2017-09-21T16:09:19.474Z,21.30
2017-09-21T16:11:47.091Z,17.67
2017-09-21T16:14:14.682Z,20.97
2017-09-21T16:16:42.294Z,18.27
2017-09-21T16:19:09.892Z,21.00
2017-09-21T16:21:37.511Z,19.03
2017-09-21T16:24:05.115Z,22.47
2017-09-21T16:26:32.699Z,19.50
2017-09-21T16:29:00.322Z,23.90
2017-09-21T16:31:27.912Z,18.93
2017-09-21T16:33:55.524Z,20.03
2017-09-21T16:36:23.145Z,23.13
2017-09-21T16:38:50.714Z,23.63
2017-09-21T16:41:18.596Z,28.00
2017-09-21T16:43:46.265Z,24.60
2017-09-21T16:46:13.839Z,21.03
2017-09-21T16:48:41.456Z,21.20
2017-09-21T16:51:09.032Z,25.63
2017-09-21T16:53:36.842Z,20.77
2017-09-21T16:56:04.420Z,19.60
2017-09-21T16:58:32.017Z,30.00
2017-09-21T17:00:59.632Z,28.40
2017-09-21T17:03:27.602Z,17.70
2017-09-21T17:05:55.213Z,28.90
2017-09-21T17:08:22.806Z,22.40
2017-09-21T17:10:50.401Z,18.93
2017-09-21T17:13:18.022Z,17.77
2017-09-21T17:15:45.612Z,23.10
2017-09-21T17:18:13.225Z,26.30
2017-09-21T17:20:40.813Z,19.80
2017-09-21T17:23:08.393Z,34.37
2017-09-21T17:25:35.991Z,22.00
2017-09-21T17:28:03.572Z,30.07
2017-09-21T17:30:31.205Z,24.40
2017-09-21T17:32:58.788Z,22.07
2017-09-21T17:35:26.371Z,22.37
2017-09-21T17:37:54.063Z,25.30
2017-09-21T17:40:21.653Z,23.30
2017-09-21T17:42:49.272Z,26.83
2017-09-21T17:45:16.855Z,28.00
2017-09-21T17:47:44.436Z,27.23
2017-09-21T17:50:12.040Z,28.43
2017-09-21T17:52:39.650Z,26.70
2017-09-21T17:55:07.272Z,29.40
2017-09-21T17:57:34.855Z,27.57
2017-09-21T18:00:02.432Z,26.03
2017-09-21T18:02:30.049Z,24.90
2017-09-21T18:04:57.629Z,27.43
2017-09-21T18:07:25.263Z,24.10
2017-09-21T18:09:52.870Z,26.60
2017-09-21T18:12:20.696Z,26.33
2017-09-21T18:14:48.569Z,31.57
2017-09-21T18:17:16.156Z,27.63
2017-09-21T18:19:43.770Z,34.47
2017-09-21T18:22:11.354Z,33.97
2017-09-21T18:24:38.932Z,33.70
2017-09-21T18:27:06.547Z,33.60
2017-09-21T18:29:34.142Z,37.63
2017-09-21T18:32:01.781Z,35.53
2017-09-21T18:34:29.359Z,33.77
2017-09-21T18:36:56.939Z,41.17
2017-09-21T18:39:24.547Z,39.17
2017-09-21T18:41:52.129Z,37.60
2017-09-21T18:44:20.012Z,29.57
2017-09-21T18:46:47.602Z,30.47
2017-09-21T18:49:15.220Z,32.93
2017-09-21T18:51:43.105Z,28.93
2017-09-21T18:54:10.723Z,27.90
2017-09-21T18:56:38.345Z,33.03
2017-09-21T18:59:06.192Z,28.40
2017-09-21T19:01:33.816Z,31.60
2017-09-21T19:04:01.416Z,28.63
2017-09-21T19:06:29.284Z,36.17
2017-09-21T19:08:56.909Z,35.47
2017-09-21T19:11:24.817Z,30.97
2017-09-21T19:13:52.432Z,37.23
2017-09-21T19:16:20.043Z,31.20
2017-09-21T19:18:47.608Z,30.50
2017-09-21T19:21:15.221Z,32.80
2017-09-21T19:23:42.796Z,31.00
2017-09-21T19:26:10.693Z,31.17
2017-09-21T19:28:38.308Z,32.33
2017-09-21T19:31:05.896Z,31.13
2017-09-21T19:33:33.523Z,31.33
2017-09-21T19:36:01.105Z,34.03
2017-09-21T19:38:28.691Z,35.40
2017-09-21T19:40:56.300Z,35.27
2017-09-21T19:43:23.884Z,40.17
2017-09-21T19:45:51.525Z,34.97
2017-09-21T19:48:19.404Z,33.97
2017-09-21T19:50:47.256Z,43.87
2017-09-21T19:53:15.103Z,47.27
2017-09-21T19:55:42.692Z,36.03
2017-09-21T19:58:10.312Z,32.37
2017-09-21T20:00:38.178Z,39.90
2017-09-21T20:03:05.764Z,45.70
2017-09-21T20:05:33.434Z,40.70
2017-09-21T20:08:01.011Z,46.23
2017-09-21T20:10:28.628Z,41.90
2017-09-21T20:12:56.209Z,47.13
2017-09-21T20:15:23.791Z,60.50
2017-09-21T20:17:51.391Z,41.03
2017-09-21T20:20:18.973Z,44.30
2017-09-21T20:22:46.605Z,46.10
2017-09-21T20:25:14.212Z,48.83
2017-09-21T20:27:41.812Z,51.53
2017-09-21T20:30:09.411Z,47.87
2017-09-21T20:32:37.031Z,54.83
2017-09-21T20:35:04.912Z,57.17
2017-09-21T20:37:32.496Z,60.63
2017-09-21T20:40:00.093Z,43.90
2017-09-21T20:42:27.715Z,46.20
2017-09-21T20:44:55.303Z,52.70
2017-09-21T20:47:22.932Z,47.07
2017-09-21T20:49:50.527Z,44.63
2017-09-21T20:52:18.138Z,43.07
2017-09-21T20:54:45.756Z,45.23
2017-09-21T20:57:13.355Z,45.90
2017-09-21T20:59:40.980Z,47.10
2017-09-21T21:02:08.635Z,57.57
2017-09-21T21:04:36.340Z,47.23
2017-09-21T21:07:03.976Z,48.43
2017-09-21T21:09:31.575Z,41.60
2017-09-21T21:11:59.207Z,52.30
2017-09-21T21:14:27.049Z,52.17
2017-09-21T21:16:54.645Z,42.43
2017-09-21T21:19:22.304Z,40.83
2017-09-21T21:21:49.915Z,46.93
2017-09-21T21:24:17.536Z,46.10
2017-09-21T21:26:45.465Z,42.53
2017-09-21T21:29:13.090Z,45.63
2017-09-21T21:31:40.709Z,43.07
2017-09-21T21:34:08.321Z,50.33
2017-09-21T21:36:35.913Z,40.60
2017-09-21T21:39:03.556Z,39.67
2017-09-21T21:41:31.150Z,44.40
2017-09-21T21:43:58.736Z,43.30
2017-09-21T21:46:26.391Z,40.80
2017-09-21T21:48:54.054Z,45.03
2017-09-21T21:51:21.638Z,36.47
2017-09-21T21:53:49.240Z,48.63
2017-09-21T21:56:16.852Z,48.77
2017-09-21T21:58:44.561Z,39.30
2017-09-21T22:01:12.190Z,31.03
2017-09-21T22:03:39.774Z,31.67
2017-09-21T22:06:08.162Z,43.67
2017-09-21T22:08:35.755Z,36.90
2017-09-21T22:11:03.420Z,36.37
2017-09-21T22:13:31.113Z,32.77
2017-09-21T22:15:59.967Z,35.73
2017-09-21T22:18:31.108Z,31.07
2017-09-21T22:20:59.018Z,43.27
2017-09-21T22:23:27.210Z,33.47
2017-09-21T22:25:56.818Z,40.60
2017-09-21T22:28:24.593Z,35.63
2017-09-21T22:30:54.984Z,32.97
2017-09-21T22:33:23.572Z,34.60
2017-09-21T22:35:51.213Z,31.37
2017-09-21T22:38:18.795Z,32.60
2017-09-21T22:40:46.622Z,31.50
2017-09-21T22:43:14.233Z,37.30
2017-09-21T22:45:41.815Z,40.90
2017-09-21T22:48:09.427Z,35.77
2017-09-21T22:50:37.132Z,32.30
2017-09-21T22:53:04.724Z,30.80
2017-09-21T22:55:32.341Z,26.50
2017-09-21T22:57:59.919Z,30.97
2017-09-21T23:00:27.535Z,32.27
2017-09-21T23:02:55.132Z,26.20
2017-09-21T23:05:22.720Z,28.70
2017-09-21T23:07:50.325Z,30.60
2017-09-21T23:10:17.899Z,29.33
2017-09-21T23:12:45.515Z,27.67
2017-09-21T23:15:13.096Z,25.43
2017-09-21T23:17:40.700Z,28.33
2017-09-21T23:20:08.327Z,26.60
2017-09-21T23:22:35.928Z,27.07
2017-09-21T23:25:03.542Z,27.70
2017-09-21T23:27:31.403Z,28.83
2017-09-21T23:29:59.005Z,22.77
2017-09-21T23:32:26.630Z,25.50
2017-09-21T23:34:54.293Z,20.93
2017-09-21T23:37:21.910Z,28.77
2017-09-21T23:39:49.487Z,25.90
2017-09-21T23:42:17.150Z,29.43
2017-09-21T23:44:44.768Z,20.70
2017-09-21T23:47:12.348Z,24.40
2017-09-21T23:49:40.169Z,23.97
2017-09-21T23:52:07.993Z,39.03
2017-09-21T23:54:35.678Z,23.13
2017-09-21T23:57:03.287Z,26.70
2017-09-21T23:59:30.875Z,25.73
